sensor_id;sensor_type;location;lat;lon;timestamp;P1;durP1;ratioP1;P2;durP2;ratioP2
6372;SDS011;3219;51.362;7.074;2022-10-29T00:02:06;17.98;;;6.38;;
6372;SDS011;3219;51.362;7.074;2022-10-29T00:04:32;14.35;;;6.20;;
6372;SDS011;3219;51.362;7.074;2022-10-29T00:06:59;17.67;;;6.35;;
6372;SDS011;3219;51.362;7.074;2022-10-29T00:09:26;12.75;;;6.07;;
6372;SDS011;3219;51.362;7.074;2022-10-29T00:11:54;16.15;;;5.72;;
6372;SDS011;3219;51.362;7.074;2022-10-29T00:14:21;13.60;;;5.78;;
6372;SDS011;3219;51.362;7.074;2022-10-29T00:16:47;14.90;;;6.18;;
6372;SDS011;3219;51.362;7.074;2022-10-29T00:19:14;18.23;;;6.43;;
6372;SDS011;3219;51.362;7.074;2022-10-29T00:21:41;15.63;;;6.25;;
6372;SDS011;3219;51.362;7.074;2022-10-29T00:24:08;15.85;;;6.50;;
6372;SDS011;3219;51.362;7.074;2022-10-29T00:26:35;19.48;;;6.68;;
6372;SDS011;3219;51.362;7.074;2022-10-29T00:29:03;16.02;;;6.13;;
6372;SDS011;3219;51.362;7.074;2022-10-29T00:31:30;18.13;;;6.07;;
6372;SDS011;3219;51.362;7.074;2022-10-29T00:33:57;11.52;;;5.88;;
6372;SDS011;3219;51.362;7.074;2022-10-29T00:36:25;16.85;;;6.50;;
6372;SDS011;3219;51.362;7.074;2022-10-29T00:38:53;12.43;;;6.13;;
6372;SDS011;3219;51.362;7.074;2022-10-29T00:41:21;16.05;;;6.57;;
6372;SDS011;3219;51.362;7.074;2022-10-29T00:43:52;16.30;;;6.30;;
6372;SDS011;3219;51.362;7.074;2022-10-29T00:46:55;16.02;;;6.13;;
6372;SDS011;3219;51.362;7.074;2022-10-29T00:49:26;13.27;;;5.88;;
6372;SDS011;3219;51.362;7.074;2022-10-29T00:51:54;18.65;;;6.47;;
6372;SDS011;3219;51.362;7.074;2022-10-29T00:54:23;12.38;;;5.82;;
6372;SDS011;3219;51.362;7.074;2022-10-29T00:56:52;14.88;;;6.22;;
6372;SDS011;3219;51.362;7.074;2022-10-29T00:59:23;17.05;;;6.55;;
6372;SDS011;3219;51.362;7.074;2022-10-29T01:01:50;17.17;;;6.18;;
6372;SDS011;3219;51.362;7.074;2022-10-29T01:04:21;13.05;;;6.07;;
6372;SDS011;3219;51.362;7.074;2022-10-29T01:06:49;22.83;;;7.05;;
6372;SDS011;3219;51.362;7.074;2022-10-29T01:09:17;19.05;;;6.72;;
6372;SDS011;3219;51.362;7.074;2022-10-29T01:11:46;16.77;;;6.05;;
6372;SDS011;3219;51.362;7.074;2022-10-29T01:14:25;15.20;;;6.35;;
6372;SDS011;3219;51.362;7.074;2022-10-29T01:16:59;14.75;;;6.43;;
6372;SDS011;3219;51.362;7.074;2022-10-29T01:19:39;14.43;;;5.75;;
6372;SDS011;3219;51.362;7.074;2022-10-29T01:22:30;18.50;;;6.53;;
6372;SDS011;3219;51.362;7.074;2022-10-29T01:25:15;21.02;;;6.85;;
6372;SDS011;3219;51.362;7.074;2022-10-29T01:28:02;21.08;;;7.28;;
6372;SDS011;3219;51.362;7.074;2022-10-29T01:33:35;28.00;;;7.78;;
6372;SDS011;3219;51.362;7.074;2022-10-29T01:36:09;14.50;;;6.47;;
6372;SDS011;3219;51.362;7.074;2022-10-29T01:38:45;16.05;;;6.40;;
6372;SDS011;3219;51.362;7.074;2022-10-29T01:41:18;19.75;;;6.95;;
6372;SDS011;3219;51.362;7.074;2022-10-29T01:43:51;12.70;;;6.68;;
6372;SDS011;3219;51.362;7.074;2022-10-29T01:46:26;15.30;;;6.63;;
6372;SDS011;3219;51.362;7.074;2022-10-29T01:49:00;14.68;;;6.15;;
6372;SDS011;3219;51.362;7.074;2022-10-29T01:51:31;13.50;;;6.30;;
6372;SDS011;3219;51.362;7.074;2022-10-29T01:54:01;14.60;;;6.35;;
6372;SDS011;3219;51.362;7.074;2022-10-29T01:56:33;13.45;;;6.65;;
6372;SDS011;3219;51.362;7.074;2022-10-29T01:59:00;11.40;;;6.22;;
6372;SDS011;3219;51.362;7.074;2022-10-29T02:01:38;15.57;;;6.55;;
6372;SDS011;3219;51.362;7.074;2022-10-29T02:04:20;17.30;;;6.90;;
6372;SDS011;3219;51.362;7.074;2022-10-29T02:06:58;16.77;;;6.68;;
6372;SDS011;3219;51.362;7.074;2022-10-29T02:09:30;19.38;;;6.50;;
6372;SDS011;3219;51.362;7.074;2022-10-29T02:12:06;13.48;;;6.35;;
6372;SDS011;3219;51.362;7.074;2022-10-29T02:14:42;17.67;;;6.25;;
6372;SDS011;3219;51.362;7.074;2022-10-29T02:17:15;13.10;;;5.90;;
6372;SDS011;3219;51.362;7.074;2022-10-29T02:19:42;17.33;;;7.57;;
6372;SDS011;3219;51.362;7.074;2022-10-29T02:22:09;13.38;;;6.47;;
6372;SDS011;3219;51.362;7.074;2022-10-29T02:24:36;20.27;;;6.47;;
6372;SDS011;3219;51.362;7.074;2022-10-29T02:27:03;15.55;;;6.43;;
6372;SDS011;3219;51.362;7.074;2022-10-29T02:29:29;14.85;;;6.40;;
6372;SDS011;3219;51.362;7.074;2022-10-29T02:31:56;13.63;;;6.30;;
6372;SDS011;3219;51.362;7.074;2022-10-29T02:34:24;20.08;;;7.15;;
6372;SDS011;3219;51.362;7.074;2022-10-29T02:36:51;20.40;;;7.18;;
6372;SDS011;3219;51.362;7.074;2022-10-29T02:39:18;15.80;;;6.85;;
6372;SDS011;3219;51.362;7.074;2022-10-29T02:41:44;15.40;;;7.25;;
6372;SDS011;3219;51.362;7.074;2022-10-29T02:44:11;21.38;;;6.93;;
6372;SDS011;3219;51.362;7.074;2022-10-29T02:46:38;16.13;;;6.82;;
6372;SDS011;3219;51.362;7.074;2022-10-29T02:49:05;16.45;;;7.60;;
6372;SDS011;3219;51.362;7.074;2022-10-29T02:51:34;15.65;;;7.15;;
6372;SDS011;3219;51.362;7.074;2022-10-29T02:54:00;20.30;;;6.32;;
6372;SDS011;3219;51.362;7.074;2022-10-29T02:56:27;14.20;;;7.32;;
6372;SDS011;3219;51.362;7.074;2022-10-29T02:58:54;12.00;;;7.03;;
6372;SDS011;3219;51.362;7.074;2022-10-29T03:01:21;18.38;;;6.95;;
6372;SDS011;3219;51.362;7.074;2022-10-29T03:03:48;13.52;;;6.65;;
6372;SDS011;3219;51.362;7.074;2022-10-29T03:06:15;22.35;;;7.60;;
6372;SDS011;3219;51.362;7.074;2022-10-29T03:08:45;26.52;;;7.88;;
6372;SDS011;3219;51.362;7.074;2022-10-29T03:11:12;19.77;;;7.25;;
6372;SDS011;3219;51.362;7.074;2022-10-29T03:13:39;25.25;;;7.80;;
6372;SDS011;3219;51.362;7.074;2022-10-29T03:16:06;18.10;;;8.00;;
6372;SDS011;3219;51.362;7.074;2022-10-29T03:18:32;17.67;;;7.72;;
6372;SDS011;3219;51.362;7.074;2022-10-29T03:20:59;19.15;;;8.00;;
6372;SDS011;3219;51.362;7.074;2022-10-29T03:23:26;21.00;;;7.75;;
6372;SDS011;3219;51.362;7.074;2022-10-29T03:25:54;14.70;;;6.97;;
6372;SDS011;3219;51.362;7.074;2022-10-29T03:28:21;25.05;;;7.93;;
6372;SDS011;3219;51.362;7.074;2022-10-29T03:30:49;27.83;;;7.85;;
6372;SDS011;3219;51.362;7.074;2022-10-29T03:33:16;18.90;;;7.82;;
6372;SDS011;3219;51.362;7.074;2022-10-29T03:35:43;20.02;;;7.20;;
6372;SDS011;3219;51.362;7.074;2022-10-29T03:38:09;18.73;;;7.20;;
6372;SDS011;3219;51.362;7.074;2022-10-29T03:40:36;16.38;;;6.97;;
6372;SDS011;3219;51.362;7.074;2022-10-29T03:43:04;14.90;;;7.75;;
6372;SDS011;3219;51.362;7.074;2022-10-29T03:45:31;17.58;;;7.45;;
6372;SDS011;3219;51.362;7.074;2022-10-29T03:47:57;17.05;;;7.55;;
6372;SDS011;3219;51.362;7.074;2022-10-29T03:50:24;23.38;;;8.45;;
6372;SDS011;3219;51.362;7.074;2022-10-29T03:52:51;23.73;;;6.90;;
6372;SDS011;3219;51.362;7.074;2022-10-29T03:55:18;20.95;;;7.22;;
6372;SDS011;3219;51.362;7.074;2022-10-29T03:57:44;17.52;;;7.45;;
6372;SDS011;3219;51.362;7.074;2022-10-29T04:00:13;17.70;;;7.47;;
6372;SDS011;3219;51.362;7.074;2022-10-29T04:02:40;14.43;;;7.95;;
6372;SDS011;3219;51.362;7.074;2022-10-29T04:05:07;20.05;;;8.20;;
6372;SDS011;3219;51.362;7.074;2022-10-29T04:07:34;18.83;;;8.10;;
6372;SDS011;3219;51.362;7.074;2022-10-29T04:10:01;24.75;;;7.47;;
6372;SDS011;3219;51.362;7.074;2022-10-29T04:12:28;20.55;;;7.38;;
6372;SDS011;3219;51.362;7.074;2022-10-29T04:14:54;16.80;;;8.30;;
6372;SDS011;3219;51.362;7.074;2022-10-29T04:17:22;16.85;;;8.30;;
6372;SDS011;3219;51.362;7.074;2022-10-29T04:19:49;21.80;;;7.85;;
6372;SDS011;3219;51.362;7.074;2022-10-29T04:22:16;20.33;;;7.50;;
6372;SDS011;3219;51.362;7.074;2022-10-29T04:24:42;18.90;;;7.78;;
6372;SDS011;3219;51.362;7.074;2022-10-29T04:27:09;18.05;;;8.05;;
6372;SDS011;3219;51.362;7.074;2022-10-29T04:29:36;15.93;;;7.63;;
6372;SDS011;3219;51.362;7.074;2022-10-29T04:32:03;19.00;;;8.13;;
6372;SDS011;3219;51.362;7.074;2022-10-29T04:34:31;18.10;;;8.25;;
6372;SDS011;3219;51.362;7.074;2022-10-29T04:36:58;21.48;;;8.35;;
6372;SDS011;3219;51.362;7.074;2022-10-29T04:39:24;21.50;;;8.38;;
6372;SDS011;3219;51.362;7.074;2022-10-29T04:41:51;17.23;;;8.15;;
6372;SDS011;3219;51.362;7.074;2022-10-29T04:44:18;20.13;;;8.52;;
6372;SDS011;3219;51.362;7.074;2022-10-29T04:46:45;15.93;;;8.05;;
6372;SDS011;3219;51.362;7.074;2022-10-29T04:49:12;18.70;;;7.43;;
6372;SDS011;3219;51.362;7.074;2022-10-29T04:51:40;15.73;;;7.72;;
6372;SDS011;3219;51.362;7.074;2022-10-29T04:54:07;21.42;;;7.60;;
6372;SDS011;3219;51.362;7.074;2022-10-29T04:56:34;15.20;;;7.50;;
6372;SDS011;3219;51.362;7.074;2022-10-29T04:59:00;19.50;;;7.68;;
6372;SDS011;3219;51.362;7.074;2022-10-29T05:01:28;17.70;;;7.47;;
6372;SDS011;3219;51.362;7.074;2022-10-29T05:03:55;18.75;;;7.63;;
6372;SDS011;3219;51.362;7.074;2022-10-29T05:06:22;23.25;;;7.60;;
6372;SDS011;3219;51.362;7.074;2022-10-29T05:08:50;18.30;;;7.60;;
6372;SDS011;3219;51.362;7.074;2022-10-29T05:11:16;18.42;;;7.18;;
6372;SDS011;3219;51.362;7.074;2022-10-29T05:13:43;21.88;;;8.45;;
6372;SDS011;3219;51.362;7.074;2022-10-29T05:16:10;18.48;;;7.15;;
6372;SDS011;3219;51.362;7.074;2022-10-29T05:18:37;16.45;;;7.32;;
6372;SDS011;3219;51.362;7.074;2022-10-29T05:21:04;21.80;;;7.22;;
6372;SDS011;3219;51.362;7.074;2022-10-29T05:23:30;13.30;;;7.18;;
6372;SDS011;3219;51.362;7.074;2022-10-29T05:25:59;17.75;;;7.85;;
6372;SDS011;3219;51.362;7.074;2022-10-29T05:28:26;14.52;;;6.72;;
6372;SDS011;3219;51.362;7.074;2022-10-29T05:30:53;18.27;;;7.35;;
6372;SDS011;3219;51.362;7.074;2022-10-29T05:33:20;16.48;;;7.88;;
6372;SDS011;3219;51.362;7.074;2022-10-29T05:35:48;18.27;;;7.47;;
6372;SDS011;3219;51.362;7.074;2022-10-29T05:38:15;18.67;;;6.72;;
6372;SDS011;3219;51.362;7.074;2022-10-29T05:40:43;16.40;;;7.97;;
6372;SDS011;3219;51.362;7.074;2022-10-29T05:43:11;17.27;;;6.68;;
6372;SDS011;3219;51.362;7.074;2022-10-29T05:45:38;18.10;;;7.15;;
6372;SDS011;3219;51.362;7.074;2022-10-29T05:48:06;15.18;;;7.07;;
6372;SDS011;3219;51.362;7.074;2022-10-29T05:50:33;14.43;;;6.63;;
6372;SDS011;3219;51.362;7.074;2022-10-29T05:53:00;14.00;;;6.55;;
6372;SDS011;3219;51.362;7.074;2022-10-29T05:55:29;17.77;;;7.30;;
6372;SDS011;3219;51.362;7.074;2022-10-29T05:57:57;14.73;;;7.03;;
6372;SDS011;3219;51.362;7.074;2022-10-29T06:00:27;18.27;;;6.97;;
6372;SDS011;3219;51.362;7.074;2022-10-29T06:02:54;12.32;;;6.78;;
6372;SDS011;3219;51.362;7.074;2022-10-29T06:05:21;12.88;;;6.75;;
6372;SDS011;3219;51.362;7.074;2022-10-29T06:07:51;13.35;;;6.55;;
6372;SDS011;3219;51.362;7.074;2022-10-29T06:10:19;14.27;;;6.53;;
6372;SDS011;3219;51.362;7.074;2022-10-29T06:12:46;17.65;;;6.32;;
6372;SDS011;3219;51.362;7.074;2022-10-29T06:15:12;12.35;;;6.25;;
6372;SDS011;3219;51.362;7.074;2022-10-29T06:17:41;19.48;;;6.28;;
6372;SDS011;3219;51.362;7.074;2022-10-29T06:20:10;13.68;;;6.57;;
6372;SDS011;3219;51.362;7.074;2022-10-29T06:22:38;15.30;;;6.50;;
6372;SDS011;3219;51.362;7.074;2022-10-29T06:25:05;13.07;;;5.95;;
6372;SDS011;3219;51.362;7.074;2022-10-29T06:27:35;20.45;;;6.53;;
6372;SDS011;3219;51.362;7.074;2022-10-29T06:30:02;14.32;;;6.03;;
6372;SDS011;3219;51.362;7.074;2022-10-29T06:32:29;17.08;;;6.00;;
6372;SDS011;3219;51.362;7.074;2022-10-29T06:34:57;22.00;;;6.72;;
6372;SDS011;3219;51.362;7.074;2022-10-29T06:37:24;19.48;;;6.53;;
6372;SDS011;3219;51.362;7.074;2022-10-29T06:39:51;19.23;;;6.88;;
6372;SDS011;3219;51.362;7.074;2022-10-29T06:42:18;18.52;;;5.97;;
6372;SDS011;3219;51.362;7.074;2022-10-29T06:44:44;19.08;;;5.80;;
6372;SDS011;3219;51.362;7.074;2022-10-29T06:47:11;17.45;;;6.07;;
6372;SDS011;3219;51.362;7.074;2022-10-29T06:49:38;16.42;;;6.07;;
6372;SDS011;3219;51.362;7.074;2022-10-29T06:52:06;16.60;;;5.57;;
6372;SDS011;3219;51.362;7.074;2022-10-29T06:54:33;20.73;;;5.72;;
6372;SDS011;3219;51.362;7.074;2022-10-29T06:56:59;15.20;;;6.05;;
6372;SDS011;3219;51.362;7.074;2022-10-29T06:59:26;16.67;;;5.30;;
6372;SDS011;3219;51.362;7.074;2022-10-29T07:01:53;19.88;;;5.35;;
6372;SDS011;3219;51.362;7.074;2022-10-29T07:04:20;22.63;;;5.55;;
6372;SDS011;3219;51.362;7.074;2022-10-29T07:06:47;17.38;;;5.32;;
6372;SDS011;3219;51.362;7.074;2022-10-29T07:09:15;19.92;;;5.38;;
6372;SDS011;3219;51.362;7.074;2022-10-29T07:11:41;18.40;;;5.57;;
6372;SDS011;3219;51.362;7.074;2022-10-29T07:14:08;13.27;;;5.50;;
6372;SDS011;3219;51.362;7.074;2022-10-29T07:16:35;14.13;;;5.65;;
6372;SDS011;3219;51.362;7.074;2022-10-29T07:19:02;14.05;;;5.53;;
6372;SDS011;3219;51.362;7.074;2022-10-29T07:21:29;13.60;;;4.88;;
6372;SDS011;3219;51.362;7.074;2022-10-29T07:23:56;13.40;;;5.03;;
6372;SDS011;3219;51.362;7.074;2022-10-29T07:26:24;14.48;;;5.30;;
6372;SDS011;3219;51.362;7.074;2022-10-29T07:28:53;18.20;;;5.07;;
6372;SDS011;3219;51.362;7.074;2022-10-29T07:31:21;11.70;;;4.57;;
6372;SDS011;3219;51.362;7.074;2022-10-29T07:33:48;18.83;;;5.68;;
6372;SDS011;3219;51.362;7.074;2022-10-29T07:36:15;20.40;;;5.45;;
6372;SDS011;3219;51.362;7.074;2022-10-29T07:38:41;16.30;;;5.43;;
6372;SDS011;3219;51.362;7.074;2022-10-29T07:41:08;17.50;;;5.15;;
6372;SDS011;3219;51.362;7.074;2022-10-29T07:43:36;18.83;;;5.32;;
6372;SDS011;3219;51.362;7.074;2022-10-29T07:46:03;15.88;;;5.05;;
6372;SDS011;3219;51.362;7.074;2022-10-29T07:48:30;15.10;;;4.80;;
6372;SDS011;3219;51.362;7.074;2022-10-29T07:50:57;16.35;;;5.20;;
6372;SDS011;3219;51.362;7.074;2022-10-29T07:53:25;16.58;;;4.75;;
6372;SDS011;3219;51.362;7.074;2022-10-29T07:55:52;15.88;;;4.75;;
6372;SDS011;3219;51.362;7.074;2022-10-29T07:58:19;18.55;;;4.75;;
6372;SDS011;3219;51.362;7.074;2022-10-29T08:00:48;13.27;;;4.50;;
6372;SDS011;3219;51.362;7.074;2022-10-29T08:03:15;16.17;;;4.43;;
6372;SDS011;3219;51.362;7.074;2022-10-29T08:05:42;14.02;;;4.22;;
6372;SDS011;3219;51.362;7.074;2022-10-29T08:08:09;11.00;;;4.35;;
6372;SDS011;3219;51.362;7.074;2022-10-29T08:10:36;14.32;;;4.43;;
6372;SDS011;3219;51.362;7.074;2022-10-29T08:13:04;12.35;;;4.78;;
6372;SDS011;3219;51.362;7.074;2022-10-29T08:15:32;16.38;;;5.22;;
6372;SDS011;3219;51.362;7.074;2022-10-29T08:18:00;25.85;;;4.30;;
6372;SDS011;3219;51.362;7.074;2022-10-29T08:20:28;15.27;;;4.25;;
6372;SDS011;3219;51.362;7.074;2022-10-29T08:22:57;11.70;;;3.72;;
6372;SDS011;3219;51.362;7.074;2022-10-29T08:25:25;16.52;;;4.47;;
6372;SDS011;3219;51.362;7.074;2022-10-29T08:27:58;13.65;;;4.00;;
6372;SDS011;3219;51.362;7.074;2022-10-29T08:30:26;14.02;;;4.22;;
6372;SDS011;3219;51.362;7.074;2022-10-29T08:32:53;13.55;;;4.63;;
6372;SDS011;3219;51.362;7.074;2022-10-29T08:35:21;17.83;;;4.70;;
6372;SDS011;3219;51.362;7.074;2022-10-29T08:37:48;18.00;;;4.72;;
6372;SDS011;3219;51.362;7.074;2022-10-29T08:40:18;18.00;;;4.18;;
6372;SDS011;3219;51.362;7.074;2022-10-29T08:43:14;15.52;;;4.70;;
6372;SDS011;3219;51.362;7.074;2022-10-29T08:45:57;14.20;;;4.45;;
6372;SDS011;3219;51.362;7.074;2022-10-29T08:48:26;13.50;;;4.50;;
6372;SDS011;3219;51.362;7.074;2022-10-29T08:51:04;13.57;;;3.80;;
6372;SDS011;3219;51.362;7.074;2022-10-29T08:53:35;15.30;;;4.63;;
6372;SDS011;3219;51.362;7.074;2022-10-29T08:56:07;16.37;;;4.33;;
6372;SDS011;3219;51.362;7.074;2022-10-29T08:58:40;18.00;;;5.03;;
6372;SDS011;3219;51.362;7.074;2022-10-29T09:01:13;12.57;;;3.88;;
6372;SDS011;3219;51.362;7.074;2022-10-29T09:03:40;13.20;;;4.47;;
6372;SDS011;3219;51.362;7.074;2022-10-29T09:06:09;10.80;;;3.88;;
6372;SDS011;3219;51.362;7.074;2022-10-29T09:08:43;12.23;;;4.63;;
6372;SDS011;3219;51.362;7.074;2022-10-29T09:11:26;19.10;;;4.90;;
6372;SDS011;3219;51.362;7.074;2022-10-29T09:14:26;19.17;;;4.55;;
6372;SDS011;3219;51.362;7.074;2022-10-29T09:16:55;15.93;;;4.55;;
6372;SDS011;3219;51.362;7.074;2022-10-29T09:19:31;18.25;;;5.13;;
6372;SDS011;3219;51.362;7.074;2022-10-29T09:22:04;17.77;;;4.13;;
6372;SDS011;3219;51.362;7.074;2022-10-29T09:24:36;14.70;;;4.55;;
6372;SDS011;3219;51.362;7.074;2022-10-29T09:27:09;25.80;;;5.13;;
6372;SDS011;3219;51.362;7.074;2022-10-29T09:29:46;15.25;;;4.13;;
6372;SDS011;3219;51.362;7.074;2022-10-29T09:32:22;15.50;;;4.28;;
6372;SDS011;3219;51.362;7.074;2022-10-29T09:34:51;16.52;;;5.25;;
6372;SDS011;3219;51.362;7.074;2022-10-29T09:37:21;18.75;;;4.40;;
6372;SDS011;3219;51.362;7.074;2022-10-29T09:39:50;16.40;;;4.82;;
6372;SDS011;3219;51.362;7.074;2022-10-29T09:42:19;13.10;;;4.43;;
6372;SDS011;3219;51.362;7.074;2022-10-29T09:44:48;13.93;;;4.32;;
6372;SDS011;3219;51.362;7.074;2022-10-29T09:47:24;13.88;;;4.07;;
6372;SDS011;3219;51.362;7.074;2022-10-29T09:49:56;19.17;;;4.85;;
6372;SDS011;3219;51.362;7.074;2022-10-29T09:52:27;15.77;;;5.28;;
6372;SDS011;3219;51.362;7.074;2022-10-29T09:54:56;13.20;;;4.35;;
6372;SDS011;3219;51.362;7.074;2022-10-29T09:57:25;15.05;;;4.32;;
6372;SDS011;3219;51.362;7.074;2022-10-29T09:59:54;18.77;;;4.82;;
6372;SDS011;3219;51.362;7.074;2022-10-29T10:02:27;25.20;;;4.60;;
6372;SDS011;3219;51.362;7.074;2022-10-29T10:04:59;15.52;;;4.45;;
6372;SDS011;3219;51.362;7.074;2022-10-29T10:07:31;16.35;;;4.30;;
6372;SDS011;3219;51.362;7.074;2022-10-29T10:09:58;12.38;;;4.38;;
6372;SDS011;3219;51.362;7.074;2022-10-29T10:12:27;12.32;;;4.28;;
6372;SDS011;3219;51.362;7.074;2022-10-29T10:15:00;19.05;;;4.82;;
6372;SDS011;3219;51.362;7.074;2022-10-29T10:20:24;25.52;;;4.30;;
6372;SDS011;3219;51.362;7.074;2022-10-29T10:22:53;22.08;;;5.40;;
6372;SDS011;3219;51.362;7.074;2022-10-29T10:25:29;14.18;;;4.03;;
6372;SDS011;3219;51.362;7.074;2022-10-29T10:27:57;19.60;;;5.63;;
6372;SDS011;3219;51.362;7.074;2022-10-29T10:33:01;17.65;;;4.03;;
6372;SDS011;3219;51.362;7.074;2022-10-29T10:35:36;18.00;;;4.25;;
6372;SDS011;3219;51.362;7.074;2022-10-29T10:38:07;12.55;;;4.70;;
6372;SDS011;3219;51.362;7.074;2022-10-29T10:40:36;18.58;;;4.15;;
6372;SDS011;3219;51.362;7.074;2022-10-29T10:43:03;25.38;;;5.28;;
6372;SDS011;3219;51.362;7.074;2022-10-29T10:45:32;14.40;;;4.53;;
6372;SDS011;3219;51.362;7.074;2022-10-29T10:48:01;20.10;;;4.60;;
6372;SDS011;3219;51.362;7.074;2022-10-29T10:50:29;15.45;;;4.80;;
6372;SDS011;3219;51.362;7.074;2022-10-29T10:52:58;16.67;;;4.20;;
6372;SDS011;3219;51.362;7.074;2022-10-29T10:55:27;17.27;;;4.55;;
6372;SDS011;3219;51.362;7.074;2022-10-29T10:57:59;22.83;;;4.97;;
6372;SDS011;3219;51.362;7.074;2022-10-29T11:00:27;13.35;;;4.13;;
6372;SDS011;3219;51.362;7.074;2022-10-29T11:03:02;10.05;;;3.88;;
6372;SDS011;3219;51.362;7.074;2022-10-29T11:05:30;13.80;;;4.05;;
6372;SDS011;3219;51.362;7.074;2022-10-29T11:08:00;18.52;;;4.45;;
6372;SDS011;3219;51.362;7.074;2022-10-29T11:10:34;18.98;;;3.97;;
6372;SDS011;3219;51.362;7.074;2022-10-29T11:13:04;15.80;;;4.00;;
6372;SDS011;3219;51.362;7.074;2022-10-29T11:15:34;18.33;;;4.55;;
6372;SDS011;3219;51.362;7.074;2022-10-29T11:18:05;17.67;;;4.05;;
6372;SDS011;3219;51.362;7.074;2022-10-29T11:20:37;16.08;;;4.40;;
6372;SDS011;3219;51.362;7.074;2022-10-29T11:23:20;16.10;;;4.05;;
6372;SDS011;3219;51.362;7.074;2022-10-29T11:25:52;15.52;;;5.13;;
6372;SDS011;3219;51.362;7.074;2022-10-29T11:28:22;16.47;;;4.93;;
6372;SDS011;3219;51.362;7.074;2022-10-29T11:30:53;15.73;;;4.68;;
6372;SDS011;3219;51.362;7.074;2022-10-29T11:33:23;18.92;;;4.22;;
6372;SDS011;3219;51.362;7.074;2022-10-29T11:35:53;18.90;;;4.75;;
6372;SDS011;3219;51.362;7.074;2022-10-29T11:38:25;14.07;;;4.20;;
6372;SDS011;3219;51.362;7.074;2022-10-29T11:40:57;19.63;;;4.60;;
6372;SDS011;3219;51.362;7.074;2022-10-29T11:43:29;9.05;;;4.05;;
6372;SDS011;3219;51.362;7.074;2022-10-29T11:45:58;19.02;;;4.40;;
6372;SDS011;3219;51.362;7.074;2022-10-29T11:48:34;17.63;;;4.32;;
6372;SDS011;3219;51.362;7.074;2022-10-29T11:51:11;22.95;;;5.03;;
6372;SDS011;3219;51.362;7.074;2022-10-29T11:53:47;20.02;;;5.05;;
6372;SDS011;3219;51.362;7.074;2022-10-29T11:56:23;13.00;;;4.15;;
6372;SDS011;3219;51.362;7.074;2022-10-29T11:58:53;14.48;;;4.40;;
6372;SDS011;3219;51.362;7.074;2022-10-29T12:01:26;18.33;;;4.30;;
6372;SDS011;3219;51.362;7.074;2022-10-29T12:04:00;14.13;;;4.30;;
6372;SDS011;3219;51.362;7.074;2022-10-29T12:06:31;12.32;;;3.90;;
6372;SDS011;3219;51.362;7.074;2022-10-29T12:09:18;18.73;;;4.63;;
6372;SDS011;3219;51.362;7.074;2022-10-29T12:11:51;20.90;;;4.45;;
6372;SDS011;3219;51.362;7.074;2022-10-29T12:14:23;16.55;;;4.53;;
6372;SDS011;3219;51.362;7.074;2022-10-29T12:16:54;20.30;;;4.35;;
6372;SDS011;3219;51.362;7.074;2022-10-29T12:19:27;15.20;;;4.25;;
6372;SDS011;3219;51.362;7.074;2022-10-29T12:22:02;13.25;;;4.10;;
6372;SDS011;3219;51.362;7.074;2022-10-29T12:24:37;13.30;;;4.38;;
6372;SDS011;3219;51.362;7.074;2022-10-29T12:27:14;18.20;;;4.15;;
6372;SDS011;3219;51.362;7.074;2022-10-29T12:29:44;13.05;;;4.13;;
6372;SDS011;3219;51.362;7.074;2022-10-29T12:32:16;9.18;;;3.60;;
6372;SDS011;3219;51.362;7.074;2022-10-29T12:34:48;12.30;;;4.00;;
6372;SDS011;3219;51.362;7.074;2022-10-29T12:37:21;10.73;;;4.03;;
6372;SDS011;3219;51.362;7.074;2022-10-29T12:39:54;14.05;;;4.35;;
6372;SDS011;3219;51.362;7.074;2022-10-29T12:42:25;13.13;;;3.75;;
6372;SDS011;3219;51.362;7.074;2022-10-29T12:44:59;10.98;;;4.18;;
6372;SDS011;3219;51.362;7.074;2022-10-29T12:47:29;14.02;;;4.13;;
6372;SDS011;3219;51.362;7.074;2022-10-29T12:50:03;13.98;;;3.92;;
6372;SDS011;3219;51.362;7.074;2022-10-29T12:52:34;16.25;;;4.53;;
6372;SDS011;3219;51.362;7.074;2022-10-29T12:55:05;12.32;;;3.97;;
6372;SDS011;3219;51.362;7.074;2022-10-29T12:57:37;9.40;;;3.60;;
6372;SDS011;3219;51.362;7.074;2022-10-29T13:02:53;14.10;;;3.45;;
6372;SDS011;3219;51.362;7.074;2022-10-29T13:05:35;16.08;;;3.88;;
6372;SDS011;3219;51.362;7.074;2022-10-29T13:08:10;13.88;;;4.32;;
6372;SDS011;3219;51.362;7.074;2022-10-29T13:10:50;20.15;;;4.20;;
6372;SDS011;3219;51.362;7.074;2022-10-29T13:13:21;16.00;;;4.25;;
6372;SDS011;3219;51.362;7.074;2022-10-29T13:15:56;19.48;;;4.53;;
6372;SDS011;3219;51.362;7.074;2022-10-29T13:18:25;10.50;;;3.92;;
6372;SDS011;3219;51.362;7.074;2022-10-29T13:20:54;16.27;;;4.45;;
6372;SDS011;3219;51.362;7.074;2022-10-29T13:23:29;9.30;;;3.25;;
6372;SDS011;3219;51.362;7.074;2022-10-29T13:25:59;15.10;;;4.05;;
6372;SDS011;3219;51.362;7.074;2022-10-29T13:28:47;20.98;;;4.15;;
6372;SDS011;3219;51.362;7.074;2022-10-29T13:34:01;14.50;;;3.97;;
6372;SDS011;3219;51.362;7.074;2022-10-29T13:36:34;15.57;;;3.65;;
6372;SDS011;3219;51.362;7.074;2022-10-29T13:39:14;22.35;;;4.35;;
6372;SDS011;3219;51.362;7.074;2022-10-29T13:41:42;16.30;;;4.53;;
6372;SDS011;3219;51.362;7.074;2022-10-29T13:44:17;13.70;;;3.63;;
6372;SDS011;3219;51.362;7.074;2022-10-29T13:46:46;18.75;;;3.88;;
6372;SDS011;3219;51.362;7.074;2022-10-29T13:49:15;10.88;;;3.80;;
6372;SDS011;3219;51.362;7.074;2022-10-29T13:51:47;14.20;;;4.10;;
6372;SDS011;3219;51.362;7.074;2022-10-29T13:54:17;11.35;;;3.38;;
6372;SDS011;3219;51.362;7.074;2022-10-29T13:56:47;15.68;;;4.00;;
6372;SDS011;3219;51.362;7.074;2022-10-29T13:59:17;17.52;;;4.30;;
6372;SDS011;3219;51.362;7.074;2022-10-29T14:04:38;16.23;;;4.63;;
6372;SDS011;3219;51.362;7.074;2022-10-29T14:07:10;16.70;;;4.65;;
6372;SDS011;3219;51.362;7.074;2022-10-29T14:09:41;12.18;;;3.95;;
6372;SDS011;3219;51.362;7.074;2022-10-29T14:12:12;19.58;;;4.63;;
6372;SDS011;3219;51.362;7.074;2022-10-29T14:14:47;11.85;;;4.30;;
6372;SDS011;3219;51.362;7.074;2022-10-29T14:17:17;12.88;;;3.53;;
6372;SDS011;3219;51.362;7.074;2022-10-29T14:19:46;13.60;;;3.95;;
6372;SDS011;3219;51.362;7.074;2022-10-29T14:22:15;18.30;;;3.95;;
6372;SDS011;3219;51.362;7.074;2022-10-29T14:24:43;11.30;;;3.97;;
6372;SDS011;3219;51.362;7.074;2022-10-29T14:27:11;8.15;;;3.45;;
6372;SDS011;3219;51.362;7.074;2022-10-29T14:29:40;12.30;;;3.42;;
6372;SDS011;3219;51.362;7.074;2022-10-29T14:34:40;11.17;;;3.80;;
6372;SDS011;3219;51.362;7.074;2022-10-29T14:37:11;19.75;;;4.07;;
6372;SDS011;3219;51.362;7.074;2022-10-29T14:39:41;16.52;;;3.70;;
6372;SDS011;3219;51.362;7.074;2022-10-29T14:42:13;11.02;;;3.88;;
6372;SDS011;3219;51.362;7.074;2022-10-29T14:44:44;14.48;;;4.13;;
6372;SDS011;3219;51.362;7.074;2022-10-29T14:47:19;15.45;;;4.25;;
6372;SDS011;3219;51.362;7.074;2022-10-29T14:49:50;13.00;;;4.15;;
6372;SDS011;3219;51.362;7.074;2022-10-29T14:52:23;12.18;;;3.85;;
6372;SDS011;3219;51.362;7.074;2022-10-29T14:54:53;14.43;;;4.72;;
6372;SDS011;3219;51.362;7.074;2022-10-29T14:57:21;9.18;;;3.70;;
6372;SDS011;3219;51.362;7.074;2022-10-29T14:59:51;16.00;;;4.63;;
6372;SDS011;3219;51.362;7.074;2022-10-29T15:02:20;13.02;;;4.78;;
6372;SDS011;3219;51.362;7.074;2022-10-29T15:04:49;12.82;;;4.32;;
6372;SDS011;3219;51.362;7.074;2022-10-29T15:07:26;13.80;;;4.38;;
6372;SDS011;3219;51.362;7.074;2022-10-29T15:10:01;13.80;;;4.18;;
6372;SDS011;3219;51.362;7.074;2022-10-29T15:12:31;10.30;;;3.50;;
6372;SDS011;3219;51.362;7.074;2022-10-29T15:15:06;13.85;;;4.18;;
6372;SDS011;3219;51.362;7.074;2022-10-29T15:17:34;14.18;;;3.97;;
6372;SDS011;3219;51.362;7.074;2022-10-29T15:20:04;15.35;;;3.72;;
6372;SDS011;3219;51.362;7.074;2022-10-29T15:22:34;19.70;;;4.38;;
6372;SDS011;3219;51.362;7.074;2022-10-29T15:25:04;12.65;;;3.95;;
6372;SDS011;3219;51.362;7.074;2022-10-29T15:27:33;10.13;;;3.88;;
6372;SDS011;3219;51.362;7.074;2022-10-29T15:30:04;18.13;;;4.32;;
6372;SDS011;3219;51.362;7.074;2022-10-29T15:32:32;17.10;;;4.30;;
6372;SDS011;3219;51.362;7.074;2022-10-29T15:34:59;21.50;;;4.30;;
6372;SDS011;3219;51.362;7.074;2022-10-29T15:37:39;15.88;;;4.20;;
6372;SDS011;3219;51.362;7.074;2022-10-29T15:40:10;13.77;;;4.00;;